Time;durP1;ratioP1;P1;durP2;ratioP2;P2;SDS_P1;SDS_P2;PMS_P1;PMS_P2;Temp;Humidity;BMP_temperature;BMP_pressure;BME280_temperature;BME280_humidity;BME280_pressure;Samples;Min_cycle;Max_cycle;Signal;HPM_P1;HPM_P2
2023/06/24 00:00:39;;;;;;;9.73;7.53;;;18.70;99.90;;;;;;5053084;28;20496;-83
2023/06/24 00:03:07;;;;;;;10.68;7.65;;;18.80;99.90;;;;;;5069907;28;20046;-83
2023/06/24 00:05:33;;;;;;;10.15;7.47;;;18.70;99.90;;;;;;5054353;28;20409;-84
2023/06/24 00:08:02;;;;;;;10.60;7.40;;;18.60;99.90;;;;;;5073935;28;20569;-84
2023/06/24 00:10:29;;;;;;;9.27;6.40;;;18.60;99.90;;;;;;5073484;28;20127;-83
2023/06/24 00:12:55;;;;;;;11.00;7.60;;;18.60;99.90;;;;;;5073944;28;20401;-84
2023/06/24 00:15:20;;;;;;;10.00;7.55;;;18.50;99.90;;;;;;5073563;28;20036;-84
2023/06/24 00:17:46;;;;;;;9.77;6.63;;;18.50;99.90;;;;;;5073635;28;20059;-83
2023/06/24 00:20:14;;;;;;;9.93;7.30;;;18.50;99.90;;;;;;5056840;28;20042;-83
2023/06/24 00:22:43;;;;;;;12.18;7.63;;;18.50;99.90;;;;;;5056796;28;20045;-83
2023/06/24 00:25:09;;;;;;;11.20;7.60;;;18.40;99.90;;;;;;5073533;28;20093;-83
2023/06/24 00:27:35;;;;;;;11.63;7.65;;;18.40;99.90;;;;;;5073207;28;20068;-83
2023/06/24 00:30:01;;;;;;;10.00;6.78;;;18.40;99.90;;;;;;5072929;28;20454;-83
2023/06/24 00:32:26;;;;;;;9.82;7.43;;;18.30;99.90;;;;;;5073253;28;20040;-83
2023/06/24 00:34:52;;;;;;;9.65;7.45;;;18.30;99.90;;;;;;5073238;28;20074;-83
2023/06/24 00:37:18;;;;;;;10.18;7.07;;;18.30;99.90;;;;;;5073505;28;20127;-83
2023/06/24 00:39:43;;;;;;;9.20;7.50;;;18.20;99.90;;;;;;5056331;28;20475;-83
2023/06/24 00:42:09;;;;;;;8.27;5.13;;;18.20;99.90;;;;;;5073311;28;20048;-83
2023/06/24 00:44:37;;;;;;;10.60;6.85;;;18.10;99.90;;;;;;5073288;28;20040;-83
2023/06/24 00:47:03;;;;;;;11.13;7.88;;;18.10;99.90;;;;;;5073513;28;20052;-83
2023/06/24 00:49:28;;;;;;;9.10;6.30;;;18.10;99.90;;;;;;5072693;28;20514;-84
2023/06/24 00:51:55;;;;;;;13.05;8.27;;;18.00;99.90;;;;;;5073279;28;20123;-84
2023/06/24 00:54:21;;;;;;;10.63;8.13;;;17.90;99.90;;;;;;5072918;28;20083;-84
2023/06/24 00:56:47;;;;;;;11.45;8.30;;;17.90;99.90;;;;;;5056097;28;20079;-85
2023/06/24 00:59:14;;;;;;;11.68;7.88;;;17.80;99.90;;;;;;5072982;28;20040;-84
2023/06/24 01:01:41;;;;;;;10.45;8.25;;;17.80;99.90;;;;;;5072835;28;20047;-84
2023/06/24 01:04:07;;;;;;;10.23;6.15;;;17.80;99.90;;;;;;5056177;28;20036;-84
2023/06/24 01:06:35;;;;;;;10.82;8.40;;;17.70;99.90;;;;;;5056357;28;20044;-84
2023/06/24 01:09:02;;;;;;;12.13;8.95;;;17.60;99.90;;;;;;5056271;28;20070;-84
2023/06/24 01:11:28;;;;;;;11.65;8.65;;;17.60;99.90;;;;;;5072331;28;20043;-84
2023/06/24 01:13:54;;;;;;;10.68;6.13;;;17.60;99.90;;;;;;5056012;28;20041;-84
2023/06/24 01:16:45;;;;;;;9.00;6.28;;;17.50;99.90;;;;;;5072567;28;20029;-84
2023/06/24 01:19:43;;;;;;;9.55;6.70;;;17.50;99.90;;;;;;5055957;28;20079;-84
2023/06/24 01:22:53;;;;;;;9.75;6.10;;;17.40;99.90;;;;;;5014646;28;20083;-84
2023/06/24 01:25:41;;;;;;;12.15;7.70;;;17.40;99.90;;;;;;4963263;28;20081;-84
2023/06/24 01:28:12;;;;;;;11.15;7.78;;;17.30;99.90;;;;;;5014927;28;20123;-84
2023/06/24 01:30:59;;;;;;;10.73;6.25;;;17.20;99.90;;;;;;5014230;28;20045;-84
2023/06/24 01:33:41;;;;;;;9.25;6.32;;;17.20;99.90;;;;;;4998271;28;20045;-84
2023/06/24 01:36:11;;;;;;;6.87;3.23;;;17.20;99.90;;;;;;5014688;28;20045;-84
2023/06/24 01:38:44;;;;;;;7.25;3.83;;;17.10;99.90;;;;;;4998321;28;20045;-84
2023/06/24 01:41:13;;;;;;;6.35;3.50;;;17.10;99.90;;;;;;5014504;28;20042;-84
2023/06/24 01:43:42;;;;;;;8.65;4.07;;;17.00;99.90;;;;;;5014600;28;20128;-84
2023/06/24 01:46:10;;;;;;;7.38;4.47;;;17.00;99.90;;;;;;5014541;28;20124;-84
2023/06/24 01:48:42;;;;;;;9.00;5.68;;;17.00;99.90;;;;;;5014590;28;20038;-84
2023/06/24 01:51:12;;;;;;;11.02;7.50;;;17.00;99.90;;;;;;4997632;28;20108;-84
2023/06/24 01:53:44;;;;;;;10.60;8.25;;;16.90;99.90;;;;;;5014227;28;20083;-84
2023/06/24 01:56:14;;;;;;;10.15;5.75;;;16.90;99.90;;;;;;5014389;28;20046;-84
2023/06/24 01:58:41;;;;;;;11.35;6.30;;;16.90;99.90;;;;;;5048113;28;20045;-84
2023/06/24 02:01:07;;;;;;;11.07;8.40;;;16.80;99.90;;;;;;5054720;28;20505;-84
2023/06/24 02:03:34;;;;;;;9.93;8.35;;;16.80;99.90;;;;;;5071636;28;20037;-83
2023/06/24 02:06:02;;;;;;;13.35;10.45;;;16.80;99.90;;;;;;5071778;28;20048;-84
2023/06/24 02:08:31;;;;;;;12.55;9.75;;;16.90;99.90;;;;;;5071508;28;20048;-84
2023/06/24 02:10:59;;;;;;;11.88;7.57;;;16.80;99.90;;;;;;5054514;28;20413;-84
2023/06/24 02:13:26;;;;;;;12.93;9.70;;;16.70;99.90;;;;;;5054588;28;20033;-84
2023/06/24 02:15:53;;;;;;;12.27;7.88;;;16.70;99.90;;;;;;5054944;28;20040;-84
2023/06/24 02:18:21;;;;;;;10.80;8.73;;;16.70;99.90;;;;;;5071338;28;20632;-84
2023/06/24 02:20:48;;;;;;;10.77;7.78;;;16.70;99.90;;;;;;5054300;28;20040;-84
2023/06/24 02:23:14;;;;;;;10.93;8.18;;;16.70;99.90;;;;;;5071231;28;20060;-83
2023/06/24 02:25:41;;;;;;;8.23;4.72;;;16.70;99.90;;;;;;5071232;28;20048;-84
2023/06/24 02:28:09;;;;;;;12.65;9.88;;;16.70;99.90;;;;;;5054390;28;20040;-84
2023/06/24 02:30:35;;;;;;;11.68;6.32;;;16.70;99.90;;;;;;5053350;28;20072;-83
2023/06/24 02:33:01;;;;;;;9.25;5.22;;;16.50;99.90;;;;;;5054265;28;20064;-84
2023/06/24 02:35:27;;;;;;;6.93;3.63;;;16.50;99.90;;;;;;5071035;28;20551;-84
2023/06/24 02:37:52;;;;;;;8.77;5.55;;;16.50;99.90;;;;;;5054415;28;20032;-84
2023/06/24 02:40:18;;;;;;;10.60;8.20;;;16.40;99.90;;;;;;5070692;28;20417;-84
2023/06/24 02:42:44;;;;;;;10.50;7.65;;;16.40;99.90;;;;;;5054108;28;20040;-84
2023/06/24 02:45:10;;;;;;;9.23;6.30;;;16.40;99.90;;;;;;5070895;28;20066;-84
2023/06/24 02:47:36;;;;;;;11.23;7.32;;;16.30;99.90;;;;;;5070741;28;20476;-84
2023/06/24 02:50:05;;;;;;;8.88;5.90;;;16.30;99.90;;;;;;5070426;28;20124;-84
2023/06/24 02:52:31;;;;;;;12.77;9.07;;;16.30;99.90;;;;;;5070688;28;20044;-84
2023/06/24 02:55:00;;;;;;;10.65;6.32;;;16.30;99.90;;;;;;5070766;28;20507;-84
2023/06/24 02:57:26;;;;;;;13.80;9.93;;;16.30;99.90;;;;;;5070791;28;20032;-84
2023/06/24 02:59:52;;;;;;;13.65;12.07;;;16.30;99.90;;;;;;5070436;28;20497;-84
2023/06/24 03:02:18;;;;;;;11.43;7.40;;;16.30;99.90;;;;;;5053920;28;20067;-84
2023/06/24 03:04:44;;;;;;;14.18;12.38;;;16.30;99.90;;;;;;5070413;28;20032;-84
2023/06/24 03:07:11;;;;;;;16.40;12.48;;;16.30;99.90;;;;;;5053967;28;20093;-84
2023/06/24 03:09:36;;;;;;;16.02;10.40;;;16.40;99.90;;;;;;5053438;28;20551;-84
2023/06/24 03:12:02;;;;;;;15.13;13.27;;;16.40;99.90;;;;;;5054027;28;20041;-84
2023/06/24 03:14:28;;;;;;;15.07;13.38;;;16.40;99.90;;;;;;5070348;28;20047;-84
2023/06/24 03:16:54;;;;;;;12.80;5.90;;;16.50;99.90;;;;;;5070446;28;20032;-84
2023/06/24 03:19:19;;;;;;;11.55;6.93;;;16.40;99.90;;;;;;5053942;28;20043;-84
2023/06/24 03:21:45;;;;;;;14.73;12.20;;;16.30;99.90;;;;;;5070129;28;20478;-84
2023/06/24 03:24:10;;;;;;;15.80;12.77;;;16.30;99.90;;;;;;5070650;28;20520;-84
2023/06/24 03:26:37;;;;;;;13.57;11.98;;;16.40;99.90;;;;;;5053720;28;20441;-84
2023/06/24 03:29:04;;;;;;;11.45;7.95;;;16.50;99.90;;;;;;5053634;28;20082;-84
2023/06/24 03:31:30;;;;;;;12.88;11.10;;;16.40;99.90;;;;;;5069757;28;20475;-84
2023/06/24 03:33:55;;;;;;;11.98;10.07;;;16.40;99.90;;;;;;5070611;28;20398;-84
2023/06/24 03:36:21;;;;;;;13.95;7.15;;;16.40;99.90;;;;;;5053592;28;20494;-84
2023/06/24 03:38:47;;;;;;;10.85;8.85;;;16.30;99.90;;;;;;5070301;28;20483;-83
2023/06/24 03:41:13;;;;;;;14.07;12.07;;;16.30;99.90;;;;;;5072129;28;20039;-83
2023/06/24 03:43:39;;;;;;;14.93;13.10;;;16.30;99.90;;;;;;5074330;28;20037;-84
2023/06/24 03:46:05;;;;;;;15.35;9.10;;;16.30;99.90;;;;;;5075469;28;20040;-84
2023/06/24 03:48:30;;;;;;;16.17;13.80;;;16.30;99.90;;;;;;5074503;28;20047;-83
2023/06/24 03:50:56;;;;;;;15.48;13.88;;;16.40;99.90;;;;;;5057279;28;20508;-84
2023/06/24 03:53:22;;;;;;;17.95;14.30;;;16.40;99.90;;;;;;5074361;28;20045;-84
2023/06/24 03:55:47;;;;;;;14.93;10.38;;;16.40;99.90;;;;;;5075175;28;20159;-83
2023/06/24 03:58:13;;;;;;;17.25;14.50;;;16.40;99.90;;;;;;5075353;28;20036;-84
2023/06/24 04:00:40;;;;;;;16.15;14.45;;;16.40;99.90;;;;;;5057306;28;20040;-84
2023/06/24 04:03:09;;;;;;;17.40;15.07;;;16.50;99.90;;;;;;5073845;28;20048;-83
2023/06/24 04:05:34;;;;;;;13.70;10.20;;;16.60;99.90;;;;;;5057206;28;20041;-84
2023/06/24 04:08:00;;;;;;;15.70;13.25;;;16.50;99.90;;;;;;5073849;28;20078;-83
2023/06/24 04:10:26;;;;;;;17.30;15.48;;;16.50;99.90;;;;;;5073482;28;20046;-84
2023/06/24 04:12:52;;;;;;;16.25;14.55;;;16.60;99.90;;;;;;5073414;28;20032;-84
2023/06/24 04:15:17;;;;;;;17.70;15.82;;;16.60;99.90;;;;;;5057078;28;20070;-84
2023/06/24 04:17:43;;;;;;;15.63;10.55;;;16.70;99.90;;;;;;5073704;28;20036;-84
2023/06/24 04:20:09;;;;;;;17.20;14.93;;;16.60;99.90;;;;;;5056614;28;20044;-84
2023/06/24 04:22:40;;;;;;;15.43;12.57;;;16.70;99.90;;;;;;5073571;28;20145;-84
2023/06/24 04:25:06;;;;;;;16.38;9.55;;;16.70;99.90;;;;;;5073700;28;20059;-84
2023/06/24 04:27:33;;;;;;;16.85;14.43;;;16.70;99.90;;;;;;5056432;28;20432;-83
2023/06/24 04:30:00;;;;;;;15.35;13.52;;;16.70;99.90;;;;;;5073211;28;20513;-84
2023/06/24 04:32:25;;;;;;;14.20;7.15;;;16.70;99.90;;;;;;5073368;28;20111;-84
2023/06/24 04:34:51;;;;;;;13.38;11.45;;;16.70;99.90;;;;;;5074847;28;20028;-84
2023/06/24 04:37:17;;;;;;;14.55;12.07;;;16.60;99.90;;;;;;5056633;28;20555;-83
2023/06/24 04:39:43;;;;;;;14.00;11.90;;;16.70;99.90;;;;;;5056253;28;20040;-84
2023/06/24 04:42:10;;;;;;;16.48;14.05;;;16.70;99.90;;;;;;5073094;28;20090;-84
2023/06/24 04:44:36;;;;;;;17.55;15.18;;;16.80;99.90;;;;;;5056263;28;20032;-84
2023/06/24 04:47:02;;;;;;;17.92;15.95;;;16.90;99.90;;;;;;5073159;28;20397;-84
2023/06/24 04:49:28;;;;;;;18.85;16.48;;;16.90;99.90;;;;;;5072399;28;20503;-84
2023/06/24 04:51:53;;;;;;;16.95;11.45;;;17.00;99.90;;;;;;5071538;28;20031;-84
2023/06/24 04:54:19;;;;;;;16.58;10.10;;;17.00;99.90;;;;;;5072312;28;20041;-84
2023/06/24 04:56:45;;;;;;;18.83;16.75;;;17.00;99.90;;;;;;5072899;28;20398;-84
2023/06/24 04:59:11;;;;;;;18.38;16.45;;;17.10;99.90;;;;;;5073023;28;20083;-83
2023/06/24 05:01:37;;;;;;;19.05;15.88;;;17.20;99.90;;;;;;5055941;28;20075;-84
2023/06/24 05:04:02;;;;;;;21.55;15.75;;;17.20;99.90;;;;;;5056425;28;20090;-84
2023/06/24 05:06:28;;;;;;;17.55;15.73;;;17.30;99.90;;;;;;5072839;28;20564;-84
2023/06/24 05:08:53;;;;;;;17.70;15.80;;;17.40;99.90;;;;;;5072955;28;20063;-84
2023/06/24 05:11:19;;;;;;;17.38;15.68;;;17.40;99.90;;;;;;5072256;28;20510;-84
2023/06/24 05:13:45;;;;;;;18.33;16.42;;;17.50;99.90;;;;;;5072810;28;20044;-84
2023/06/24 05:16:10;;;;;;;17.90;16.10;;;17.50;99.90;;;;;;5072629;28;20428;-84
2023/06/24 05:18:36;;;;;;;18.70;13.25;;;17.60;99.90;;;;;;5072500;28;20060;-84
2023/06/24 05:21:01;;;;;;;19.67;17.42;;;17.60;99.90;;;;;;5072318;28;20051;-84
2023/06/24 05:23:27;;;;;;;17.88;15.80;;;17.70;99.90;;;;;;5073652;28;20456;-84
2023/06/24 05:25:53;;;;;;;17.15;15.40;;;17.70;99.90;;;;;;5072320;28;20047;-83
2023/06/24 05:28:18;;;;;;;18.00;16.10;;;17.80;99.90;;;;;;5055758;28;20067;-84
2023/06/24 05:30:45;;;;;;;17.65;15.38;;;17.80;99.90;;;;;;5072076;28;20045;-84
2023/06/24 05:33:11;;;;;;;17.98;16.17;;;17.80;99.90;;;;;;5055569;28;20044;-84
2023/06/24 05:35:39;;;;;;;17.80;15.77;;;17.90;99.90;;;;;;5055513;28;20037;-84
2023/06/24 05:38:05;;;;;;;18.08;16.17;;;18.00;99.90;;;;;;5072195;28;20028;-84
2023/06/24 05:40:31;;;;;;;19.00;16.42;;;18.00;99.90;;;;;;5071778;28;20044;-84
2023/06/24 05:42:56;;;;;;;18.92;16.65;;;18.10;99.90;;;;;;5071618;28;20040;-84
2023/06/24 05:45:22;;;;;;;19.33;17.30;;;18.10;99.90;;;;;;5071987;28;20044;-84
2023/06/24 05:47:47;;;;;;;18.45;16.25;;;18.20;99.90;;;;;;5071949;28;20136;-84
2023/06/24 05:50:13;;;;;;;17.75;15.88;;;18.30;99.90;;;;;;5055103;28;20131;-84
2023/06/24 05:52:38;;;;;;;19.17;16.35;;;18.30;99.90;;;;;;5071776;28;20086;-84
2023/06/24 05:55:04;;;;;;;18.08;16.20;;;18.40;99.90;;;;;;5071724;28;20043;-84
2023/06/24 05:57:30;;;;;;;18.05;16.15;;;18.50;99.90;;;;;;5054823;28;20036;-84
2023/06/24 05:59:56;;;;;;;18.00;16.10;;;18.60;99.90;;;;;;5055105;28;20097;-84
2023/06/24 06:02:21;;;;;;;19.80;16.23;;;18.60;99.90;;;;;;5055140;28;20040;-84
2023/06/24 06:04:47;;;;;;;17.67;15.77;;;18.70;99.90;;;;;;5054851;28;20425;-84
2023/06/24 06:07:13;;;;;;;17.15;15.23;;;18.80;99.90;;;;;;5071360;28;20040;-84
2023/06/24 06:09:38;;;;;;;16.70;14.90;;;18.80;99.90;;;;;;5071186;28;20271;-85
2023/06/24 06:12:05;;;;;;;17.10;15.40;;;18.90;99.90;;;;;;5071456;28;20119;-85
2023/06/24 06:14:30;;;;;;;17.77;15.88;;;19.00;99.90;;;;;;5071573;28;20538;-84
2023/06/24 06:16:56;;;;;;;16.73;15.02;;;19.00;99.90;;;;;;5071389;28;20037;-85
2023/06/24 06:19:21;;;;;;;18.10;15.30;;;19.10;99.90;;;;;;5071571;28;20410;-85
2023/06/24 06:21:48;;;;;;;16.63;14.82;;;19.20;99.90;;;;;;5070932;28;20529;-85
2023/06/24 06:24:14;;;;;;;16.65;14.27;;;19.30;99.90;;;;;;5054664;28;20036;-84
2023/06/24 06:26:44;;;;;;;19.75;14.65;;;19.30;99.90;;;;;;5071454;28;20036;-84
2023/06/24 06:29:12;;;;;;;17.25;14.63;;;19.40;99.90;;;;;;5054520;28;20033;-84
2023/06/24 06:31:39;;;;;;;17.25;14.82;;;19.50;99.90;;;;;;5070757;28;20032;-85
2023/06/24 06:34:05;;;;;;;20.25;14.38;;;19.60;99.90;;;;;;5071384;28;20044;-84
2023/06/24 06:36:31;;;;;;;16.17;13.80;;;19.70;99.90;;;;;;5054376;28;20405;-85
2023/06/24 06:38:56;;;;;;;15.30;13.70;;;19.70;99.90;;;;;;5071093;28;20051;-84
2023/06/24 06:41:24;;;;;;;16.15;13.68;;;19.80;99.90;;;;;;5070907;28;20040;-85
2023/06/24 06:43:53;;;;;;;16.48;12.85;;;19.90;99.90;;;;;;5069535;28;20095;-84
2023/06/24 06:46:19;;;;;;;16.38;12.95;;;20.00;99.90;;;;;;5054427;28;20041;-85
2023/06/24 06:48:45;;;;;;;17.00;13.52;;;20.20;99.90;;;;;;5070824;28;20047;-85
2023/06/24 06:51:10;;;;;;;15.27;12.27;;;20.30;99.90;;;;;;5070316;28;20043;-85
2023/06/24 06:53:36;;;;;;;13.75;11.68;;;20.30;99.90;;;;;;5071040;28;20032;-85
2023/06/24 06:56:02;;;;;;;14.98;11.65;;;20.40;99.90;;;;;;5070624;28;20060;-85
2023/06/24 06:58:27;;;;;;;15.23;11.65;;;20.50;99.90;;;;;;5053776;28;20040;-85
2023/06/24 07:00:53;;;;;;;12.60;11.13;;;20.60;99.90;;;;;;5070266;28;20055;-85
2023/06/24 07:03:18;;;;;;;13.13;11.20;;;20.70;99.90;;;;;;5053827;28;20044;-85
2023/06/24 07:05:44;;;;;;;18.35;11.27;;;20.80;99.90;;;;;;5070503;28;20438;-86
2023/06/24 07:08:10;;;;;;;12.88;10.35;;;20.90;99.90;;;;;;5070648;28;20041;-85
2023/06/24 07:10:35;;;;;;;12.55;10.57;;;21.00;99.90;;;;;;5069969;28;20489;-85
2023/06/24 07:13:01;;;;;;;14.40;10.32;;;21.10;99.90;;;;;;5070525;28;20101;-85
2023/06/24 07:15:27;;;;;;;12.98;9.80;;;21.20;99.90;;;;;;5070086;28;20029;-85
2023/06/24 07:17:53;;;;;;;11.73;9.77;;;21.40;99.90;;;;;;5070348;28;20068;-86
2023/06/24 07:20:20;;;;;;;11.80;9.10;;;21.40;99.90;;;;;;5053408;28;20032;-86
2023/06/24 07:22:45;;;;;;;11.77;9.00;;;21.50;99.90;;;;;;5070629;28;20383;-86
2023/06/24 07:25:11;;;;;;;10.10;8.10;;;21.60;99.90;;;;;;5070714;28;20517;-85
2023/06/24 07:27:37;;;;;;;10.48;7.88;;;21.70;99.90;;;;;;5070460;28;20044;-85
2023/06/24 07:30:04;;;;;;;12.82;8.40;;;21.80;99.90;;;;;;5069979;28;20048;-86
2023/06/24 07:32:30;;;;;;;11.68;8.85;;;21.80;99.90;;;;;;5070176;28;20047;-86
2023/06/24 07:34:56;;;;;;;12.98;8.95;;;21.90;99.90;;;;;;5070232;28;20032;-86
2023/06/24 07:37:22;;;;;;;13.50;8.73;;;22.00;99.90;;;;;;5070421;28;20036;-85
2023/06/24 07:39:48;;;;;;;12.40;9.00;;;22.10;99.90;;;;;;5053568;28;20056;-85
2023/06/24 07:42:18;;;;;;;17.67;9.18;;;22.20;99.90;;;;;;5070289;28;20506;-85
2023/06/24 07:44:45;;;;;;;13.60;8.88;;;22.20;99.90;;;;;;5070278;28;20037;-85
2023/06/24 07:47:10;;;;;;;11.90;9.23;;;22.30;99.90;;;;;;5070102;28;20032;-85
2023/06/24 07:49:36;;;;;;;12.07;9.75;;;22.40;99.30;;;;;;5070023;28;20059;-85
2023/06/24 07:52:02;;;;;;;11.52;9.60;;;22.50;98.20;;;;;;5071365;28;20112;-85
2023/06/24 07:54:27;;;;;;;13.13;9.27;;;22.50;98.10;;;;;;5053388;28;20428;-85
2023/06/24 07:56:53;;;;;;;12.63;9.88;;;22.60;99.20;;;;;;5070378;28;20405;-85
2023/06/24 07:59:18;;;;;;;15.77;10.35;;;22.70;97.60;;;;;;5070366;28;20036;-85
2023/06/24 08:01:44;;;;;;;11.98;9.75;;;22.70;97.00;;;;;;5069941;28;20529;-86
2023/06/24 08:04:10;;;;;;;13.07;10.10;;;22.80;96.80;;;;;;5053336;28;20033;-85
2023/06/24 08:06:35;;;;;;;13.13;9.90;;;22.90;97.00;;;;;;5070026;28;20059;-88
2023/06/24 08:09:01;;;;;;;12.68;9.85;;;22.90;96.50;;;;;;5050553;28;20037;-85
2023/06/24 08:11:26;;;;;;;12.82;10.20;;;23.00;97.10;;;;;;5068692;28;20047;-85
2023/06/24 08:13:52;;;;;;;12.93;10.20;;;23.10;95.90;;;;;;5069081;28;20079;-85
2023/06/24 08:16:20;;;;;;;14.02;11.10;;;23.20;95.60;;;;;;5069047;28;20679;-86
2023/06/24 08:18:46;;;;;;;14.32;10.60;;;23.20;95.50;;;;;;5068920;28;20053;-85
2023/06/24 08:21:12;;;;;;;13.32;11.30;;;23.30;94.40;;;;;;5068734;28;20525;-85
2023/06/24 08:23:37;;;;;;;13.88;11.75;;;23.40;95.00;;;;;;5052405;28;20044;-85
2023/06/24 08:26:03;;;;;;;14.70;12.52;;;23.60;93.80;;;;;;5068366;28;20033;-85
2023/06/24 08:28:29;;;;;;;16.25;11.88;;;23.60;93.20;;;;;;5071277;28;20076;-85
2023/06/24 08:30:54;;;;;;;13.52;11.48;;;23.60;92.90;;;;;;5071486;28;20636;-85
2023/06/24 08:33:20;;;;;;;13.60;11.30;;;23.60;93.00;;;;;;5072346;28;20074;-86
2023/06/24 08:35:45;;;;;;;15.10;11.68;;;23.70;92.40;;;;;;5072372;28;20047;-86
2023/06/24 08:38:11;;;;;;;14.40;12.73;;;23.80;93.00;;;;;;5071203;28;20040;-86
2023/06/24 08:40:39;;;;;;;13.88;12.38;;;23.80;91.10;;;;;;5053638;28;20039;-85
2023/06/24 08:43:06;;;;;;;15.40;12.77;;;23.90;90.50;;;;;;5053689;28;20097;-85
2023/06/24 08:45:32;;;;;;;16.40;14.02;;;24.00;90.70;;;;;;5070100;28;20039;-86
2023/06/24 08:48:01;;;;;;;14.88;13.10;;;24.00;90.30;;;;;;5053877;28;20036;-86
2023/06/24 08:50:34;;;;;;;15.55;13.88;;;24.10;91.20;;;;;;5053488;28;20040;-86
2023/06/24 08:53:07;;;;;;;16.20;13.57;;;24.10;90.60;;;;;;5071173;28;20111;-85
2023/06/24 08:55:40;;;;;;;15.00;12.27;;;24.20;90.00;;;;;;5072752;28;20041;-86
2023/06/24 08:58:07;;;;;;;14.23;12.57;;;24.20;90.60;;;;;;5072653;28;20044;-86
2023/06/24 09:00:33;;;;;;;14.55;11.75;;;24.20;89.10;;;;;;5072232;28;20051;-86
2023/06/24 09:02:59;;;;;;;14.05;11.32;;;24.30;90.00;;;;;;5055608;28;20040;-86
2023/06/24 09:05:24;;;;;;;13.85;11.15;;;24.40;89.00;;;;;;5072629;28;20050;-86
2023/06/24 09:07:50;;;;;;;13.32;10.85;;;24.40;88.40;;;;;;5055612;28;20486;-86
2023/06/24 09:10:36;;;;;;;15.38;12.80;;;24.50;85.40;;;;;;5054904;28;20036;-86
2023/06/24 09:13:06;;;;;;;13.25;11.65;;;24.50;85.70;;;;;;5072454;28;20082;-86
2023/06/24 09:15:37;;;;;;;13.82;10.95;;;24.50;87.80;;;;;;5071269;28;20042;-86
2023/06/24 09:18:04;;;;;;;15.35;10.73;;;24.70;85.80;;;;;;5054993;28;20051;-86
2023/06/24 09:20:31;;;;;;;12.38;8.63;;;24.70;83.70;;;;;;5055063;28;20505;-86
2023/06/24 09:23:02;;;;;;;9.15;5.88;;;24.70;81.80;;;;;;5055246;28;20045;-86
2023/06/24 09:25:29;;;;;;;9.13;5.68;;;24.70;77.50;;;;;;5071986;28;20571;-86
2023/06/24 09:27:55;;;;;;;12.02;7.03;;;24.70;75.70;;;;;;5055203;28;20083;-86
2023/06/24 09:30:22;;;;;;;9.80;5.57;;;24.80;76.00;;;;;;5070786;28;20055;-86
2023/06/24 09:32:48;;;;;;;13.85;9.10;;;24.80;75.20;;;;;;5070885;28;20437;-86
2023/06/24 09:35:17;;;;;;;13.77;9.77;;;24.90;78.00;;;;;;5071729;28;20040;-86
2023/06/24 09:37:43;;;;;;;12.02;8.25;;;24.90;79.60;;;;;;5070936;28;20047;-86
2023/06/24 09:40:10;;;;;;;11.10;8.00;;;25.00;79.00;;;;;;5070991;28;20036;-86
2023/06/24 09:42:35;;;;;;;11.70;7.90;;;25.10;77.00;;;;;;5054830;28;20040;-86
2023/06/24 09:45:05;;;;;;;9.23;5.95;;;25.00;74.80;;;;;;5071242;28;20048;-86
2023/06/24 09:47:31;;;;;;;10.75;7.30;;;25.10;73.60;;;;;;5070851;28;20052;-86
2023/06/24 09:49:57;;;;;;;12.52;8.00;;;25.10;73.10;;;;;;5053746;28;20041;-86
2023/06/24 09:52:23;;;;;;;10.80;7.47;;;25.10;72.40;;;;;;5071349;28;20497;-86
2023/06/24 09:54:51;;;;;;;11.63;7.20;;;25.20;73.10;;;;;;5071495;28;20029;-86
2023/06/24 09:57:25;;;;;;;11.30;6.80;;;25.20;74.50;;;;;;5071114;28;20064;-86
2023/06/24 09:59:52;;;;;;;11.45;6.47;;;25.30;73.20;;;;;;5071253;28;20240;-86
2023/06/24 10:02:18;;;;;;;11.65;6.88;;;25.30;73.20;;;;;;5072014;28;20040;-86
2023/06/24 10:04:45;;;;;;;9.43;6.55;;;25.40;72.00;;;;;;5071081;28;20051;-86
2023/06/24 10:07:11;;;;;;;11.05;7.57;;;25.40;71.50;;;;;;5071202;28;20106;-86
2023/06/24 10:09:38;;;;;;;10.98;8.43;;;25.40;72.70;;;;;;5070567;28;20075;-86
2023/06/24 10:12:04;;;;;;;12.77;8.73;;;25.50;73.20;;;;;;5054004;28;20121;-86
2023/06/24 10:14:30;;;;;;;11.27;7.35;;;25.50;74.60;;;;;;5069363;28;20074;-86
2023/06/24 10:17:03;;;;;;;9.70;6.63;;;25.70;73.80;;;;;;5070586;28;20033;-86
2023/06/24 10:19:29;;;;;;;11.27;6.20;;;25.70;73.10;;;;;;5054008;28;20036;-86
2023/06/24 10:21:58;;;;;;;10.85;6.43;;;25.70;71.70;;;;;;5070795;28;20059;-86
2023/06/24 10:24:35;;;;;;;10.50;5.40;;;25.80;71.60;;;;;;5071081;28;20036;-86
2023/06/24 10:27:02;;;;;;;12.13;6.40;;;25.90;71.70;;;;;;5054366;28;20413;-86
2023/06/24 10:29:33;;;;;;;12.18;8.00;;;25.90;72.70;;;;;;5069885;28;20040;-86
2023/06/24 10:32:07;;;;;;;12.07;7.50;;;25.90;70.80;;;;;;5053168;28;20076;-86
2023/06/24 10:34:46;;;;;;;10.68;6.68;;;25.90;69.60;;;;;;5053674;28;20094;-86
2023/06/24 10:37:20;;;;;;;9.70;6.00;;;25.90;68.80;;;;;;5053627;28;20123;-86
2023/06/24 10:39:49;;;;;;;10.15;5.82;;;25.90;69.10;;;;;;5068906;28;20040;-86
2023/06/24 10:42:35;;;;;;;9.35;5.22;;;25.90;68.90;;;;;;5053385;28;20054;-86
2023/06/24 10:45:10;;;;;;;7.72;3.92;;;25.90;68.10;;;;;;5056775;28;20054;-86
2023/06/24 10:47:40;;;;;;;8.85;4.47;;;26.00;68.70;;;;;;5070690;28;20072;-86
2023/06/24 10:50:07;;;;;;;7.95;4.35;;;26.00;67.90;;;;;;5069983;28;20032;-86
2023/06/24 10:52:38;;;;;;;8.90;4.65;;;26.10;66.00;;;;;;5070740;28;20044;-86
2023/06/24 10:55:04;;;;;;;9.20;3.92;;;26.20;65.80;;;;;;5071193;28;20405;-86
2023/06/24 10:57:30;;;;;;;7.80;3.95;;;26.30;66.20;;;;;;5071009;28;20037;-86
2023/06/24 10:59:56;;;;;;;7.53;3.95;;;26.30;65.50;;;;;;5070630;28;20094;-86
2023/06/24 11:02:24;;;;;;;8.27;3.95;;;26.40;65.80;;;;;;5054379;28;20102;-86
2023/06/24 11:04:53;;;;;;;9.10;4.50;;;26.50;66.50;;;;;;5054146;28;20517;-86
2023/06/24 11:07:23;;;;;;;9.43;4.28;;;26.50;65.80;;;;;;5054087;28;20104;-86
2023/06/24 11:09:50;;;;;;;8.00;4.10;;;26.60;67.30;;;;;;5070478;28;20049;-86
2023/06/24 11:12:16;;;;;;;9.20;4.78;;;26.70;67.50;;;;;;5070697;28;20452;-86
2023/06/24 11:14:41;;;;;;;7.72;4.22;;;26.80;65.60;;;;;;5070720;28;20113;-86
2023/06/24 11:17:07;;;;;;;9.45;4.93;;;26.90;67.50;;;;;;5070774;28;20505;-86
2023/06/24 11:19:34;;;;;;;7.60;4.60;;;27.00;67.00;;;;;;5067933;28;20075;-86
2023/06/24 11:22:03;;;;;;;9.02;4.40;;;27.00;66.10;;;;;;5066735;28;20032;-87
2023/06/24 11:24:28;;;;;;;8.50;4.57;;;27.10;65.70;;;;;;5070003;28;20504;-86
2023/06/24 11:26:55;;;;;;;8.75;4.82;;;27.10;67.40;;;;;;5053077;28;20040;-87
2023/06/24 11:29:21;;;;;;;8.75;4.65;;;27.20;66.50;;;;;;5052650;28;20063;-87
2023/06/24 11:31:46;;;;;;;9.50;5.13;;;27.20;65.50;;;;;;5069335;28;20410;-87
2023/06/24 11:34:12;;;;;;;9.20;4.57;;;27.30;65.80;;;;;;5070409;28;20139;-87
2023/06/24 11:36:38;;;;;;;9.57;4.40;;;27.30;66.30;;;;;;5053605;28;20511;-87
2023/06/24 11:39:04;;;;;;;9.68;4.68;;;27.40;65.90;;;;;;5053263;28;20553;-87
2023/06/24 11:41:29;;;;;;;9.02;4.50;;;27.60;66.90;;;;;;5070082;28;20075;-87
2023/06/24 11:43:57;;;;;;;8.65;4.30;;;27.70;66.60;;;;;;5070076;28;20040;-87
2023/06/24 11:46:27;;;;;;;8.60;4.45;;;27.80;64.10;;;;;;5070556;28;20398;-87
2023/06/24 11:49:14;;;;;;;7.97;4.55;;;27.70;62.00;;;;;;5070105;28;20040;-87
2023/06/24 11:51:49;;;;;;;8.70;4.45;;;27.70;62.70;;;;;;5069946;28;20060;-88
2023/06/24 11:54:20;;;;;;;7.70;4.50;;;27.70;62.40;;;;;;5069919;28;20043;-87
2023/06/24 11:56:51;;;;;;;8.00;4.20;;;27.70;62.20;;;;;;5049734;28;20033;-87
2023/06/24 11:59:24;;;;;;;8.43;4.05;;;27.70;62.00;;;;;;5049628;28;20306;-87
2023/06/24 12:01:57;;;;;;;7.35;3.80;;;27.80;61.10;;;;;;5051050;28;20418;-87
2023/06/24 12:04:36;;;;;;;7.80;3.97;;;27.80;61.10;;;;;;5053888;28;20090;-87
2023/06/24 12:07:02;;;;;;;7.53;3.72;;;27.80;60.80;;;;;;5037557;28;20044;-88
2023/06/24 12:09:29;;;;;;;8.95;4.10;;;27.90;60.30;;;;;;5060198;28;20712;-87
2023/06/24 12:11:54;;;;;;;8.07;3.90;;;27.80;59.30;;;;;;5072838;28;20070;-87
2023/06/24 12:14:20;;;;;;;8.07;4.03;;;27.90;60.90;;;;;;5056132;28;20044;-87
2023/06/24 12:16:45;;;;;;;7.85;4.20;;;28.00;62.20;;;;;;5073052;28;20032;-87
2023/06/24 12:19:11;;;;;;;8.95;4.00;;;28.20;62.30;;;;;;5073230;28;20076;-87
2023/06/24 12:21:37;;;;;;;8.65;3.72;;;28.20;60.60;;;;;;5072536;28;20489;-87
2023/06/24 12:24:04;;;;;;;8.55;3.83;;;28.20;60.40;;;;;;5056745;28;20527;-87
2023/06/24 12:26:31;;;;;;;9.52;4.20;;;28.30;60.20;;;;;;5072868;28;20047;-87
2023/06/24 12:28:57;;;;;;;7.95;4.20;;;28.40;60.40;;;;;;5071675;28;20041;-87
2023/06/24 12:31:25;;;;;;;19.10;4.65;;;28.40;61.50;;;;;;5055938;28;20669;-87
2023/06/24 12:33:52;;;;;;;12.95;4.00;;;28.60;62.00;;;;;;5070267;28;20505;-87
2023/06/24 12:36:21;;;;;;;6.82;3.55;;;28.70;61.00;;;;;;5057092;28;20040;-87